Time;durP1;ratioP1;P1;durP2;ratioP2;P2;SDS_P1;SDS_P2;PMS_P1;PMS_P2;Temp;Humidity;BMP_temperature;BMP_pressure;BME280_temperature;BME280_humidity;BME280_pressure;Samples;Min_cycle;Max_cycle;Signal;HPM_P1;HPM_P2
2023/10/29 00:01:23;;;;;;;8.80;6.13;;;;;;;;;;5099735;28;20897;-82
2023/10/29 00:03:48;;;;;;;8.88;6.28;;;11.00;99.90;;;;;;5095673;28;20394;-81
2023/10/29 00:06:14;;;;;;;10.57;7.15;;;;;;;;;;5096038;28;20477;-83
2023/10/29 00:08:40;;;;;;;13.00;6.97;;;;;;;;;;5113516;28;20392;-82
2023/10/29 00:11:07;;;;;;;11.25;7.55;;;;;;;;;;5115913;28;20479;-84
2023/10/29 00:13:33;;;;;;;11.77;7.82;;;;;;;;;;5098031;28;20457;-83
2023/10/29 00:15:59;;;;;;;12.68;8.60;;;;;;;;;;5086134;28;20404;-83
2023/10/29 00:18:25;;;;;;;14.03;8.27;;;;;;;;;;5115338;28;20567;-84
2023/10/29 00:20:51;;;;;;;12.95;8.48;;;;;;;;;;5098835;28;20906;-84
2023/10/29 00:23:17;;;;;;;11.85;8.32;;;;;;;;;;5115222;28;20400;-82
2023/10/29 00:25:43;;;;;;;12.52;8.20;;;;;;;;;;5097089;28;20457;-83
2023/10/29 00:28:11;;;;;;;11.40;8.00;;;;;;;;;;5114034;28;20480;-83
2023/10/29 00:30:38;;;;;;;12.55;8.15;;;;;;;;;;5081787;28;20400;-83
2023/10/29 00:33:04;;;;;;;8.98;8.07;;;10.90;99.90;;;;;;5100866;28;20761;-83
2023/10/29 00:35:30;;;;;;;12.45;7.88;;;10.80;99.90;;;;;;5096293;28;20396;-84
2023/10/29 00:37:56;;;;;;;9.93;7.73;;;;;;;;;;5094363;28;20821;-83
2023/10/29 00:40:22;;;;;;;9.77;8.07;;;;;;;;;;5110987;28;20412;-84
2023/10/29 00:42:48;;;;;;;8.40;7.50;;;;;;;;;;5114397;28;20404;-84
2023/10/29 00:45:14;;;;;;;9.93;7.65;;;;;;;;;;5106624;27;20426;-84
2023/10/29 00:47:40;;;;;;;12.07;7.70;;;;;;;;;;5103117;28;20473;-84
2023/10/29 00:50:06;;;;;;;9.75;7.53;;;;;;;;;;5110326;28;20482;-83
2023/10/29 00:52:34;;;;;;;11.18;6.88;;;;;;;;;;5114085;28;20453;-84
2023/10/29 00:55:00;;;;;;;8.77;6.80;;;;;;;;;;5112710;28;20407;-83
2023/10/29 00:57:27;;;;;;;10.13;7.05;;;;;;;;;;5113335;28;20439;-84
2023/10/29 00:59:53;;;;;;;10.38;7.38;;;11.30;99.90;;;;;;5113912;28;20396;-84
2023/10/29 01:02:20;;;;;;;10.18;7.30;;;;;;;;;;5097404;27;20466;-83
2023/10/29 01:04:46;;;;;;;8.88;7.30;;;;;;;;;;5134315;27;20399;-82
2023/10/29 01:07:12;;;;;;;9.60;7.80;;;;;;;;;;5124792;27;20505;-84
2023/10/29 01:09:40;;;;;;;10.48;7.90;;;11.10;99.90;;;;;;5112523;28;20510;-82
2023/10/29 01:12:15;;;;;;;11.90;8.13;;;11.40;99.90;;;;;;5111491;28;20412;-83
2023/10/29 01:14:41;;;;;;;10.23;8.20;;;;;;;;;;5091168;28;20415;-83
2023/10/29 01:17:07;;;;;;;11.02;8.00;;;;;;;;;;5094131;28;20445;-82
2023/10/29 01:19:33;;;;;;;11.48;8.25;;;11.70;99.90;;;;;;5105549;27;20560;-82
2023/10/29 01:21:58;;;;;;;10.30;8.27;;;11.60;99.90;;;;;;5114956;27;20859;-82
2023/10/29 01:24:25;;;;;;;10.43;7.90;;;;;;;;;;5115198;27;20391;-82
2023/10/29 01:26:50;;;;;;;10.27;8.43;;;11.70;99.90;;;;;;5115151;27;20394;-82
2023/10/29 01:29:16;;;;;;;11.98;8.65;;;;;;;;;;5115544;27;20402;-83
2023/10/29 01:31:42;;;;;;;11.45;8.75;;;;;;;;;;5134786;27;20823;-82
2023/10/29 01:34:08;;;;;;;11.07;8.95;;;11.70;99.90;;;;;;5115578;27;20407;-81
2023/10/29 01:36:34;;;;;;;14.33;8.77;;;;;;;;;;5136736;27;20430;-83
2023/10/29 01:39:00;;;;;;;10.15;8.90;;;;;;;;;;5109713;27;20420;-83
2023/10/29 01:41:26;;;;;;;10.63;8.55;;;;;;;;;;5134541;27;20739;-82
2023/10/29 01:43:52;;;;;;;8.77;7.40;;;11.70;99.90;;;;;;5099099;28;20435;-82
2023/10/29 01:46:18;;;;;;;11.98;7.80;;;;;;;;;;5081727;27;20432;-83
2023/10/29 01:48:44;;;;;;;9.60;8.00;;;12.10;99.90;;;;;;5097630;27;20813;-82
2023/10/29 01:51:10;;;;;;;8.80;7.10;;;;;;;;;;5098268;27;20474;-82
2023/10/29 01:53:36;;;;;;;8.05;6.50;;;12.20;99.90;;;;;;5131342;27;20471;-83
2023/10/29 01:56:07;;;;;;;7.95;6.20;;;12.10;99.90;;;;;;5116276;27;20399;-83
2023/10/29 01:58:33;;;;;;;7.38;5.47;;;;;;;;;;5116216;27;20422;-81
2023/10/29 02:00:59;;;;;;;9.30;5.25;;;12.30;99.90;;;;;;5099566;28;20922;-82
2023/10/29 02:03:26;;;;;;;8.20;4.75;;;;;;;;;;5072612;27;20936;-82
2023/10/29 02:05:52;;;;;;;6.00;4.20;;;;;;;;;;5104872;27;20755;-82
2023/10/29 02:08:19;;;;;;;6.80;4.60;;;;;;;;;;5113624;27;21026;-83
2023/10/29 02:10:45;;;;;;;6.30;3.90;;;;;;;;;;5096690;27;20429;-83
2023/10/29 02:13:12;;;;;;;8.48;4.20;;;;;;;;;;5115880;27;20477;-84
2023/10/29 02:15:38;;;;;;;6.82;3.28;;;;;;;;;;5114665;27;20399;-82
2023/10/29 02:18:05;;;;;;;4.60;3.10;;;;;;;;;;5109081;28;20428;-84
2023/10/29 02:20:31;;;;;;;5.38;3.60;;;;;;;;;;5112962;28;20475;-83
2023/10/29 02:22:57;;;;;;;4.72;2.83;;;;;;;;;;5109928;28;20400;-82
2023/10/29 02:25:23;;;;;;;5.15;3.03;;;;;;;;;;5090110;28;20410;-83
2023/10/29 02:27:49;;;;;;;5.97;2.78;;;;;;;;;;5103461;28;20499;-83
2023/10/29 02:30:15;;;;;;;5.35;2.45;;;;;;;;;;5106233;28;20407;-83
2023/10/29 02:32:41;;;;;;;4.57;2.50;;;;;;;;;;5109893;28;20418;-83
2023/10/29 02:35:10;;;;;;;4.77;2.50;;;12.80;99.90;;;;;;5112510;28;20392;-82
2023/10/29 02:37:36;;;;;;;5.57;2.27;;;;;;;;;;5081391;28;20506;-82
2023/10/29 02:40:03;;;;;;;6.28;2.13;;;;;;;;;;5094398;28;20414;-83
2023/10/29 02:42:29;;;;;;;5.00;2.35;;;12.80;99.90;;;;;;5110037;27;20420;-82
2023/10/29 02:44:55;;;;;;;4.60;2.15;;;;;;;;;;5094968;28;20406;-82
2023/10/29 02:47:21;;;;;;;4.75;2.45;;;12.80;99.90;;;;;;5094388;28;20439;-82
2023/10/29 02:49:47;;;;;;;7.75;2.72;;;;;;;;;;5076485;28;20447;-82
2023/10/29 02:52:13;;;;;;;5.57;2.60;;;;;;;;;;5097747;28;20479;-83
2023/10/29 02:54:39;;;;;;;4.70;2.50;;;12.40;99.90;;;;;;5091757;28;20466;-82
2023/10/29 02:57:05;;;;;;;4.90;2.10;;;12.60;99.90;;;;;;5107159;27;20942;-82
2023/10/29 02:59:31;;;;;;;4.70;2.40;;;;;;;;;;5095012;28;20510;-83
2023/10/29 03:01:57;;;;;;;4.97;2.53;;;;;;;;;;5110068;28;20396;-83
2023/10/29 03:04:23;;;;;;;4.72;2.20;;;12.70;99.90;;;;;;5111645;28;20400;-83
2023/10/29 03:06:49;;;;;;;6.13;2.40;;;12.50;99.90;;;;;;5105322;28;20954;-83
2023/10/29 03:09:15;;;;;;;6.40;2.40;;;;;;;;;;5100450;28;20494;-82
2023/10/29 03:11:41;;;;;;;4.93;2.35;;;;;;;;;;5111353;28;20484;-82
2023/10/29 03:14:07;;;;;;;5.53;2.50;;;12.40;99.90;;;;;;5107794;28;20396;-81
2023/10/29 03:16:33;;;;;;;4.28;2.20;;;;;;;;;;5101792;28;20417;-82
2023/10/29 03:19:00;;;;;;;4.10;2.30;;;;;;;;;;5104767;28;20427;-83
2023/10/29 03:21:27;;;;;;;5.22;2.35;;;;;;;;;;5109384;28;20939;-82
2023/10/29 03:23:53;;;;;;;5.70;2.03;;;;;;;;;;5111123;28;20465;-82
2023/10/29 03:26:19;;;;;;;4.60;2.10;;;;;;;;;;5096474;28;20912;-82
2023/10/29 03:28:45;;;;;;;5.00;1.80;;;12.60;99.90;;;;;;5103640;28;20495;-82
2023/10/29 03:31:15;;;;;;;5.00;1.70;;;;;;;;;;5107411;28;20884;-82
2023/10/29 03:33:41;;;;;;;4.00;1.80;;;12.60;99.90;;;;;;5114856;27;20476;-82
2023/10/29 03:36:07;;;;;;;3.22;1.50;;;;;;;;;;5132064;27;20906;-82
2023/10/29 03:38:33;;;;;;;3.75;1.67;;;;;;;;;;5116791;28;20970;-82
2023/10/29 03:41:00;;;;;;;2.78;1.33;;;;;;;;;;5111470;28;20424;-82
2023/10/29 03:43:26;;;;;;;4.65;1.92;;;;;;;;;;5110172;28;20467;-82
2023/10/29 03:45:51;;;;;;;3.13;1.40;;;13.00;99.90;;;;;;5098756;28;20396;-82
2023/10/29 03:48:17;;;;;;;4.63;1.67;;;;;;;;;;5110193;28;20405;-82
2023/10/29 03:50:43;;;;;;;3.73;1.60;;;13.00;99.90;;;;;;5114433;28;20410;-82
2023/10/29 03:53:09;;;;;;;3.47;1.50;;;12.70;99.90;;;;;;5091871;28;20476;-82
2023/10/29 03:55:38;;;;;;;2.63;1.30;;;12.90;99.90;;;;;;5107550;28;20539;-82
2023/10/29 03:58:06;;;;;;;3.43;1.47;;;12.90;99.90;;;;;;5099806;28;20481;-82
2023/10/29 04:00:32;;;;;;;4.15;1.50;;;12.90;99.90;;;;;;5091570;28;20407;-82
2023/10/29 04:02:58;;;;;;;4.53;1.63;;;13.10;99.90;;;;;;5110507;28;20454;-82
2023/10/29 04:05:24;;;;;;;3.92;1.33;;;;;;;;;;5117961;28;20778;-82
2023/10/29 04:07:49;;;;;;;3.50;1.30;;;13.00;99.90;;;;;;5107887;28;20771;-82
2023/10/29 04:10:15;;;;;;;2.17;1.20;;;;;;;;;;5110303;28;20606;-81
2023/10/29 04:12:41;;;;;;;3.00;1.20;;;13.30;99.90;;;;;;5109462;28;20399;-82
2023/10/29 04:15:08;;;;;;;2.97;1.33;;;13.50;99.90;;;;;;5111318;28;20475;-83
2023/10/29 04:17:40;;;;;;;2.92;1.23;;;13.40;99.90;;;;;;5109211;28;20814;-82
2023/10/29 04:20:08;;;;;;;3.55;1.20;;;;;;;;;;5094735;28;20392;-82
2023/10/29 04:22:34;;;;;;;1.92;1.20;;;;;;;;;;5086440;28;20418;-83
2023/10/29 04:25:00;;;;;;;3.15;1.10;;;;;;;;;;5090562;28;20405;-84
2023/10/29 04:27:26;;;;;;;3.08;0.90;;;;;;;;;;5099479;28;20483;-84
2023/10/29 04:29:52;;;;;;;2.40;0.93;;;;;;;;;;5111350;28;20396;-84
2023/10/29 04:32:17;;;;;;;2.67;0.80;;;13.00;99.90;;;;;;5093403;28;20404;-83
2023/10/29 04:34:44;;;;;;;1.50;0.80;;;;;;;;;;5094567;28;20865;-83
2023/10/29 04:37:10;;;;;;;2.50;1.08;;;;;;;;;;5116827;27;20444;-83
2023/10/29 04:39:36;;;;;;;3.55;1.00;;;;;;;;;;5119529;27;20463;-84
2023/10/29 04:42:02;;;;;;;1.90;0.95;;;12.60;99.90;;;;;;5119012;27;20820;-85
2023/10/29 04:44:28;;;;;;;3.23;0.90;;;;;;;;;;5105144;28;20400;-83
2023/10/29 04:46:53;;;;;;;1.92;0.80;;;12.50;99.90;;;;;;5096704;28;20859;-83
2023/10/29 04:49:20;;;;;;;2.15;1.00;;;;;;;;;;5114000;28;20470;-83
2023/10/29 04:51:46;;;;;;;2.88;0.93;;;;;;;;;;5108928;28;20465;-84
2023/10/29 04:54:12;;;;;;;2.38;0.90;;;;;;;;;;5127989;27;20425;-85
2023/10/29 04:56:38;;;;;;;2.60;1.20;;;;;;;;;;5123793;27;20953;-82
2023/10/29 04:59:04;;;;;;;6.55;1.33;;;;;;;;;;5099717;28;20927;-83
2023/10/29 05:01:30;;;;;;;3.83;1.35;;;;;;;;;;5064324;28;20409;-83
2023/10/29 05:03:56;;;;;;;3.17;1.20;;;;;;;;;;5077445;28;20410;-83
2023/10/29 05:06:22;;;;;;;2.63;1.03;;;;;;;;;;5104946;28;20398;-83
2023/10/29 05:08:51;;;;;;;2.35;0.98;;;;;;;;;;5115356;27;20457;-84
2023/10/29 05:11:17;;;;;;;2.50;1.10;;;11.90;99.90;;;;;;5088484;28;20800;-82
2023/10/29 05:13:43;;;;;;;2.57;0.90;;;;;;;;;;5113103;28;20400;-82
2023/10/29 05:16:10;;;;;;;3.60;1.20;;;;;;;;;;5082861;28;20437;-82
2023/10/29 05:18:37;;;;;;;1.90;0.93;;;;;;;;;;5087991;28;20420;-83
2023/10/29 05:21:04;;;;;;;3.43;1.20;;;;;;;;;;5105216;28;20431;-83
2023/10/29 05:23:29;;;;;;;3.00;1.10;;;11.70;99.90;;;;;;5097291;28;20393;-82
2023/10/29 05:25:56;;;;;;;2.40;0.97;;;;;;;;;;5096063;28;20405;-83
2023/10/29 05:28:22;;;;;;;2.67;1.00;;;;;;;;;;5107418;27;20444;-82
2023/10/29 05:30:48;;;;;;;2.33;0.98;;;11.70;99.90;;;;;;5109315;28;20414;-82
2023/10/29 05:33:14;;;;;;;2.57;0.80;;;;;;;;;;5097216;28;20454;-83
2023/10/29 05:35:40;;;;;;;3.90;0.82;;;;;;;;;;5113779;28;20469;-84
2023/10/29 05:38:06;;;;;;;2.87;0.87;;;;;;;;;;5112803;28;20486;-83
2023/10/29 05:40:32;;;;;;;1.95;0.80;;;11.60;99.90;;;;;;5115143;28;20961;-83
2023/10/29 05:42:58;;;;;;;3.75;1.08;;;;;;;;;;5111297;28;20408;-84
2023/10/29 05:45:24;;;;;;;3.03;1.00;;;;;;;;;;5114191;27;20510;-83
2023/10/29 05:47:50;;;;;;;3.38;1.00;;;;;;;;;;5134285;27;20406;-84
2023/10/29 05:50:16;;;;;;;3.90;1.10;;;;;;;;;;5121745;27;20591;-84
2023/10/29 05:52:43;;;;;;;3.50;1.33;;;;;;;;;;5108074;28;20466;-83
2023/10/29 05:55:09;;;;;;;2.95;1.17;;;;;;;;;;5102501;28;20533;-83
2023/10/29 05:57:35;;;;;;;2.80;1.20;;;;;;;;;;5094197;28;20493;-84
2023/10/29 06:00:01;;;;;;;4.30;1.30;;;11.90;99.90;;;;;;5104141;27;20485;-84
2023/10/29 06:02:27;;;;;;;3.63;1.10;;;;;;;;;;5090759;28;20967;-82
2023/10/29 06:04:53;;;;;;;4.13;1.27;;;12.20;99.90;;;;;;5109963;28;20402;-83
2023/10/29 06:07:18;;;;;;;3.63;1.17;;;12.20;99.90;;;;;;5104514;28;20485;-83
2023/10/29 06:09:44;;;;;;;3.57;1.37;;;;;;;;;;5104498;28;20404;-81
2023/10/29 06:12:11;;;;;;;4.63;1.50;;;;;;;;;;5108756;28;20454;-83
2023/10/29 06:14:37;;;;;;;5.85;2.30;;;;;;;;;;5113499;28;20895;-83
2023/10/29 06:17:03;;;;;;;5.70;2.97;;;;;;;;;;5104568;28;20398;-84
2023/10/29 06:19:29;;;;;;;4.22;1.63;;;;;;;;;;5149262;27;20971;-84
2023/10/29 06:21:55;;;;;;;4.25;1.48;;;;;;;;;;5131977;27;20394;-84
2023/10/29 06:24:21;;;;;;;6.25;1.60;;;12.20;99.90;;;;;;5109599;27;20524;-83
2023/10/29 06:26:47;;;;;;;6.35;1.38;;;;;;;;;;5111827;28;20468;-83
2023/10/29 06:29:13;;;;;;;4.63;1.60;;;;;;;;;;5109282;27;20402;-83
2023/10/29 06:31:39;;;;;;;5.07;1.30;;;12.50;99.90;;;;;;5105495;27;20721;-83
2023/10/29 06:34:06;;;;;;;4.30;1.25;;;;;;;;;;5091851;28;20416;-82
2023/10/29 06:36:32;;;;;;;3.78;1.15;;;;;;;;;;5101332;27;20398;-84
2023/10/29 06:38:58;;;;;;;3.80;1.20;;;;;;;;;;5108654;28;20455;-84
2023/10/29 06:41:24;;;;;;;4.90;1.40;;;;;;;;;;5104230;28;20423;-85
2023/10/29 06:43:50;;;;;;;4.38;1.33;;;;;;;;;;5097250;28;20404;-82
2023/10/29 06:46:16;;;;;;;3.55;1.35;;;;;;;;;;5096757;27;20398;-81
2023/10/29 06:48:43;;;;;;;5.53;1.43;;;;;;;;;;5110034;27;20404;-81
2023/10/29 06:51:15;;;;;;;5.47;1.65;;;;;;;;;;5119941;27;20485;-81
2023/10/29 06:53:41;;;;;;;5.63;1.35;;;;;;;;;;5101671;27;20392;-82
2023/10/29 06:56:07;;;;;;;4.70;1.40;;;;;;;;;;5111602;27;20416;-82
2023/10/29 06:58:33;;;;;;;4.25;1.40;;;12.40;99.90;;;;;;5115551;27;20422;-81
2023/10/29 07:01:03;;;;;;;4.15;1.10;;;;;;;;;;5115668;27;20413;-82
2023/10/29 07:03:29;;;;;;;3.67;1.05;;;;;;;;;;5098091;27;20402;-81
2023/10/29 07:06:05;;;;;;;3.67;1.02;;;12.60;99.90;;;;;;5099442;27;20406;-81
2023/10/29 07:08:32;;;;;;;7.82;1.52;;;;;;;;;;5104745;27;20429;-81
2023/10/29 07:10:58;;;;;;;5.93;1.20;;;;;;;;;;5120181;27;20490;-82
2023/10/29 07:13:24;;;;;;;4.53;1.30;;;12.60;99.90;;;;;;5115879;27;20455;-82
2023/10/29 07:15:50;;;;;;;3.80;1.15;;;12.60;99.90;;;;;;5108893;28;20883;-82
2023/10/29 07:18:17;;;;;;;5.15;1.00;;;;;;;;;;5114737;27;20914;-82
2023/10/29 07:20:43;;;;;;;6.27;1.00;;;;;;;;;;5113927;27;20400;-80
2023/10/29 07:23:09;;;;;;;3.90;1.17;;;;;;;;;;5119923;27;20413;-82
2023/10/29 07:25:36;;;;;;;3.83;1.00;;;;;;;;;;5108768;27;20453;-82
2023/10/29 07:28:02;;;;;;;5.22;2.47;;;;;;;;;;5102394;27;20415;-81
2023/10/29 07:30:28;;;;;;;3.85;1.00;;;;;;;;;;5117794;27;20895;-82
2023/10/29 07:32:55;;;;;;;4.07;1.17;;;;;;;;;;5109948;28;20403;-80
2023/10/29 07:35:21;;;;;;;5.53;1.20;;;;;;;;;;5131352;27;20395;-82
2023/10/29 07:37:46;;;;;;;4.13;1.30;;;12.70;99.90;;;;;;5121717;28;20473;-82
2023/10/29 07:40:13;;;;;;;3.72;1.15;;;;;;;;;;5106234;28;20960;-83
2023/10/29 07:42:39;;;;;;;7.28;1.30;;;;;;;;;;5117682;28;20396;-82
2023/10/29 07:45:05;;;;;;;5.72;1.63;;;;;;;;;;5083218;28;20396;-80
2023/10/29 07:47:32;;;;;;;3.88;1.10;;;;;;;;;;5113429;28;20412;-80
2023/10/29 07:49:58;;;;;;;4.57;1.48;;;12.90;99.90;;;;;;5099465;28;20458;-81
2023/10/29 07:52:24;;;;;;;5.57;1.17;;;13.10;99.90;;;;;;5099326;28;20827;-81
2023/10/29 07:54:50;;;;;;;4.20;1.20;;;;;;;;;;5099515;28;20485;-81
2023/10/29 07:57:15;;;;;;;3.42;1.00;;;13.00;99.90;;;;;;5102051;28;20440;-79
2023/10/29 07:59:42;;;;;;;4.07;1.20;;;;;;;;;;5114514;28;20406;-80
2023/10/29 08:02:08;;;;;;;4.28;1.02;;;;;;;;;;5102178;28;20445;-80
2023/10/29 08:04:34;;;;;;;4.00;1.20;;;13.10;99.90;;;;;;5098109;28;20421;-78
2023/10/29 08:07:00;;;;;;;3.70;1.50;;;;;;;;;;5131853;28;20395;-78
2023/10/29 08:09:26;;;;;;;4.50;1.20;;;13.20;99.90;;;;;;5123079;27;20505;-79
2023/10/29 08:11:53;;;;;;;7.07;1.70;;;;;;;;;;5101175;27;20390;-79
2023/10/29 08:14:18;;;;;;;7.10;1.50;;;13.50;99.90;;;;;;5116087;27;20483;-79
2023/10/29 08:16:44;;;;;;;6.72;1.45;;;;;;;;;;5107019;27;20433;-80
2023/10/29 08:19:10;;;;;;;4.20;1.15;;;;;;;;;;5136201;27;20928;-79
2023/10/29 08:21:37;;;;;;;4.40;1.25;;;;;;;;;;5121811;27;20432;-78
2023/10/29 08:24:03;;;;;;;4.47;1.30;;;;;;;;;;5115800;27;20412;-80
2023/10/29 08:26:31;;;;;;;6.65;1.13;;;13.50;99.90;;;;;;5125769;27;20394;-77
2023/10/29 08:28:57;;;;;;;7.27;1.40;;;;;;;;;;5107123;27;20426;-79
2023/10/29 08:31:23;;;;;;;5.28;1.30;;;13.70;99.90;;;;;;5123135;27;20399;-80
2023/10/29 08:33:49;;;;;;;4.30;1.33;;;;;;;;;;5109198;27;20527;-79
2023/10/29 08:36:19;;;;;;;3.67;1.20;;;13.60;99.90;;;;;;5123316;27;20451;-79
2023/10/29 08:38:45;;;;;;;5.10;1.50;;;13.80;99.90;;;;;;5090584;27;20420;-79
2023/10/29 08:41:17;;;;;;;3.25;1.17;;;14.00;99.90;;;;;;5091384;27;20466;-79
2023/10/29 08:43:44;;;;;;;4.03;1.30;;;;;;;;;;5108828;27;20453;-79
2023/10/29 08:46:10;;;;;;;6.03;1.40;;;14.00;99.90;;;;;;5106937;27;20405;-79
2023/10/29 08:48:36;;;;;;;4.32;1.20;;;14.20;99.90;;;;;;5119728;27;20426;-79
2023/10/29 08:51:02;;;;;;;8.13;1.30;;;;;;;;;;5119813;27;20496;-77
2023/10/29 08:53:28;;;;;;;8.83;1.47;;;14.30;99.90;;;;;;5112595;27;20908;-79
2023/10/29 08:55:54;;;;;;;4.60;1.27;;;;;;;;;;5120448;27;20402;-78
2023/10/29 08:58:23;;;;;;;5.43;1.20;;;;;;;;;;5110679;27;20417;-78
2023/10/29 09:00:49;;;;;;;5.07;1.13;;;14.30;99.90;;;;;;5112590;27;20442;-78
2023/10/29 09:03:14;;;;;;;5.85;1.20;;;14.30;99.90;;;;;;5098788;27;20403;-83
2023/10/29 09:05:41;;;;;;;7.10;1.45;;;;;;;;;;5096119;27;20396;-82
2023/10/29 09:08:07;;;;;;;4.28;1.42;;;;;;;;;;5115466;27;20811;-82
2023/10/29 09:10:33;;;;;;;5.60;1.40;;;;;;;;;;5120830;27;20465;-82
2023/10/29 09:13:00;;;;;;;6.95;1.50;;;14.40;99.90;;;;;;5122015;27;20412;-81
2023/10/29 09:15:26;;;;;;;5.55;1.20;;;;;;;;;;5123882;27;20862;-82
2023/10/29 09:17:52;;;;;;;3.92;1.13;;;;;;;;;;5114141;27;20426;-82
2023/10/29 09:20:19;;;;;;;5.93;1.20;;;;;;;;;;5086399;27;20401;-83
2023/10/29 09:22:46;;;;;;;6.00;1.20;;;;;;;;;;5118500;27;20465;-83
2023/10/29 09:25:12;;;;;;;4.45;1.38;;;;;;;;;;5099210;28;20418;-82
2023/10/29 09:27:38;;;;;;;7.13;1.35;;;;;;;;;;5133228;27;20416;-81
2023/10/29 09:30:05;;;;;;;5.95;1.23;;;;;;;;;;5102983;27;20400;-83
2023/10/29 09:32:34;;;;;;;6.85;1.50;;;;;;;;;;5135521;27;20750;-82
2023/10/29 09:35:00;;;;;;;5.67;1.30;;;14.80;99.90;;;;;;5116889;27;20399;-81
2023/10/29 09:37:26;;;;;;;5.53;1.33;;;;;;;;;;5114934;27;20451;-83
2023/10/29 09:39:52;;;;;;;6.40;1.50;;;14.40;99.90;;;;;;5106547;27;20403;-83
2023/10/29 09:42:22;;;;;;;5.18;1.52;;;14.40;99.90;;;;;;5125432;27;20402;-83
2023/10/29 09:44:49;;;;;;;6.85;1.42;;;14.60;99.90;;;;;;5104869;28;20479;-83
2023/10/29 09:47:19;;;;;;;4.72;1.52;;;;;;;;;;5114326;27;20394;-83
2023/10/29 09:49:45;;;;;;;3.87;1.30;;;;;;;;;;5135997;27;20501;-82
2023/10/29 09:52:13;;;;;;;8.68;2.10;;;14.70;99.90;;;;;;5115179;27;20939;-83
2023/10/29 09:54:39;;;;;;;5.53;1.52;;;;;;;;;;5096947;28;20926;-79
2023/10/29 09:57:06;;;;;;;5.53;1.52;;;14.90;99.90;;;;;;5131679;27;20478;-82
2023/10/29 09:59:32;;;;;;;7.82;1.55;;;;;;;;;;5123619;27;20831;-78
2023/10/29 10:01:58;;;;;;;4.55;1.30;;;14.70;99.90;;;;;;5102934;27;20464;-79
2023/10/29 10:04:24;;;;;;;5.47;1.58;;;14.80;99.90;;;;;;5096888;27;20413;-78
2023/10/29 10:06:51;;;;;;;6.25;1.65;;;14.50;99.90;;;;;;5123633;27;20398;-77
2023/10/29 10:09:17;;;;;;;5.68;1.45;;;;;;;;;;5118340;27;20497;-78
2023/10/29 10:11:43;;;;;;;6.97;1.60;;;14.30;99.90;;;;;;5117790;27;20537;-83
2023/10/29 10:14:25;;;;;;;5.87;1.50;;;14.60;99.90;;;;;;5107762;27;20422;-83
2023/10/29 10:17:07;;;;;;;5.78;1.55;;;;;;;;;;5101531;27;20399;-83
2023/10/29 10:19:33;;;;;;;4.78;1.67;;;14.50;99.90;;;;;;5100528;27;20403;-83
2023/10/29 10:21:59;;;;;;;3.77;1.43;;;;;;;;;;5083947;27;20393;-82
2023/10/29 10:24:39;;;;;;;6.07;1.60;;;14.80;99.90;;;;;;5119619;27;20403;-83
2023/10/29 10:27:06;;;;;;;7.23;1.90;;;15.00;99.90;;;;;;5127894;27;20465;-83
2023/10/29 10:29:32;;;;;;;6.93;1.90;;;;;;;;;;5097750;28;20424;-83
2023/10/29 10:32:06;;;;;;;6.38;1.67;;;14.80;99.90;;;;;;5124330;27;20460;-83
2023/10/29 10:34:42;;;;;;;6.85;1.65;;;14.70;99.90;;;;;;5119713;27;20437;-83
2023/10/29 10:37:08;;;;;;;6.20;1.38;;;14.70;99.90;;;;;;5123169;27;20419;-82
2023/10/29 10:39:34;;;;;;;7.10;2.33;;;;;;;;;;5137040;27;20413;-82
2023/10/29 10:42:02;;;;;;;6.63;1.50;;;14.90;99.90;;;;;;5109984;27;20482;-81
2023/10/29 10:44:29;;;;;;;6.20;1.55;;;;;;;;;;5097910;27;20405;-83
2023/10/29 10:47:00;;;;;;;6.35;1.50;;;;;;;;;;5100384;27;20425;-83
2023/10/29 10:49:30;;;;;;;5.43;1.40;;;14.60;99.90;;;;;;5117554;27;20463;-82
2023/10/29 10:51:58;;;;;;;5.70;1.48;;;14.70;99.90;;;;;;5119725;27;20917;-81
2023/10/29 10:54:25;;;;;;;5.78;1.45;;;14.80;99.90;;;;;;5108021;27;20403;-83
2023/10/29 10:56:52;;;;;;;6.50;1.80;;;15.00;99.90;;;;;;5107406;27;20406;-82
2023/10/29 10:59:19;;;;;;;6.07;1.60;;;14.70;99.90;;;;;;5103148;27;20499;-82
2023/10/29 11:01:46;;;;;;;8.13;2.40;;;14.90;99.90;;;;;;5100964;27;20441;-82
2023/10/29 11:04:12;;;;;;;6.68;1.70;;;;;;;;;;5101162;27;20890;-82
2023/10/29 11:06:39;;;;;;;7.72;1.95;;;;;;;;;;5135204;27;20756;-81
2023/10/29 11:09:13;;;;;;;10.05;1.90;;;14.80;99.90;;;;;;5140613;27;20448;-81
2023/10/29 11:11:55;;;;;;;5.47;1.75;;;14.40;99.90;;;;;;5141300;27;20429;-81
2023/10/29 11:14:22;;;;;;;8.15;2.10;;;;;;;;;;5117131;28;20400;-83
2023/10/29 11:16:56;;;;;;;7.53;2.05;;;14.70;99.90;;;;;;5103911;28;20474;-79
2023/10/29 11:19:39;;;;;;;7.13;1.85;;;;;;;;;;5116263;28;20511;-78
2023/10/29 11:22:31;;;;;;;8.20;2.00;;;14.80;99.90;;;;;;5127387;27;20825;-78
2023/10/29 11:25:08;;;;;;;7.38;1.90;;;14.60;99.90;;;;;;5137980;27;20480;-79
2023/10/29 11:27:45;;;;;;;8.27;3.10;;;;;;;;;;5124647;27;20478;-79
2023/10/29 11:30:16;;;;;;;9.67;2.40;;;;;;;;;;5081655;27;20485;-78
2023/10/29 11:32:43;;;;;;;6.45;2.42;;;15.20;99.90;;;;;;5098651;28;20439;-81
2023/10/29 11:35:15;;;;;;;7.50;2.00;;;15.30;99.90;;;;;;5096314;28;20478;-78
2023/10/29 11:37:42;;;;;;;8.68;2.25;;;15.30;99.90;;;;;;5102708;27;20421;-82
2023/10/29 11:40:23;;;;;;;6.72;1.90;;;15.20;99.90;;;;;;5119163;27;20401;-77
2023/10/29 11:42:52;;;;;;;10.63;2.22;;;14.80;99.90;;;;;;5099306;28;20905;-77
2023/10/29 11:45:27;;;;;;;8.95;2.05;;;14.70;99.90;;;;;;5135596;27;20415;-81
2023/10/29 11:48:09;;;;;;;7.25;1.80;;;14.90;99.90;;;;;;5137849;27;20454;-82
2023/10/29 11:50:36;;;;;;;7.80;2.00;;;;;;;;;;5116459;28;20773;-81
2023/10/29 11:53:02;;;;;;;8.98;1.80;;;;;;;;;;5116239;28;20402;-78
2023/10/29 11:55:29;;;;;;;9.93;1.88;;;;;;;;;;5115640;28;20912;-79
2023/10/29 11:57:56;;;;;;;7.07;1.90;;;14.50;99.90;;;;;;5096784;28;20446;-79
2023/10/29 12:00:22;;;;;;;7.78;1.70;;;14.60;99.90;;;;;;5129464;27;20445;-79
2023/10/29 12:02:51;;;;;;;8.77;2.10;;;14.70;99.90;;;;;;5137267;27;20478;-81
2023/10/29 12:05:17;;;;;;;8.63;2.28;;;;;;;;;;5137925;27;20413;-80
2023/10/29 12:07:43;;;;;;;9.07;2.10;;;;;;;;;;5117378;27;20476;-79
2023/10/29 12:10:10;;;;;;;8.23;1.88;;;14.60;99.90;;;;;;5115659;28;20411;-79
2023/10/29 12:12:36;;;;;;;6.15;1.65;;;14.50;99.90;;;;;;5094009;28;20899;-81
2023/10/29 12:15:02;;;;;;;8.27;1.70;;;;;;;;;;5080291;28;20412;-81
2023/10/29 12:17:28;;;;;;;8.70;1.85;;;;;;;;;;5105477;28;20423;-81
2023/10/29 12:19:55;;;;;;;6.75;1.73;;;14.60;99.90;;;;;;5116204;28;20418;-81
2023/10/29 12:22:27;;;;;;;9.17;2.70;;;14.40;99.90;;;;;;5134932;28;20390;-81
2023/10/29 12:24:59;;;;;;;6.38;1.98;;;14.50;99.90;;;;;;5115733;28;20459;-83
2023/10/29 12:27:25;;;;;;;8.57;1.77;;;14.50;99.90;;;;;;5106157;28;20486;-80
2023/10/29 12:29:52;;;;;;;8.45;2.00;;;;;;;;;;5103641;28;20477;-81
2023/10/29 12:32:22;;;;;;;9.43;2.10;;;14.40;99.90;;;;;;5100993;28;20441;-81
2023/10/29 12:34:57;;;;;;;5.50;1.70;;;14.30;99.90;;;;;;5118217;27;20413;-79
2023/10/29 12:37:27;;;;;;;9.60;1.90;;;14.60;99.90;;;;;;5127661;28;20471;-83
2023/10/29 12:39:56;;;;;;;6.88;1.70;;;;;;;;;;5102958;28;20416;-79
2023/10/29 12:42:53;;;;;;;7.63;2.00;;;14.40;99.90;;;;;;5111644;28;20450;-78
2023/10/29 12:45:33;;;;;;;7.10;1.77;;;14.50;99.90;;;;;;5096955;27;20965;-78
2023/10/29 12:48:08;;;;;;;7.55;1.80;;;14.50;99.90;;;;;;5113363;28;20421;-79
2023/10/29 12:50:47;;;;;;;9.57;1.80;;;;;;;;;;5103786;28;20424;-78
2023/10/29 12:53:22;;;;;;;8.80;2.40;;;14.50;99.90;;;;;;5106864;28;20914;-81
2023/10/29 12:55:48;;;;;;;6.25;1.65;;;;;;;;;;5117177;27;20460;-82
2023/10/29 12:58:14;;;;;;;10.05;2.20;;;14.30;99.90;;;;;;5117940;27;20423;-83
2023/10/29 13:00:39;;;;;;;7.95;1.83;;;14.30;99.90;;;;;;5099714;27;20405;-82
2023/10/29 13:03:05;;;;;;;8.80;2.20;;;;;;;;;;5104100;27;20398;-79
2023/10/29 13:05:32;;;;;;;9.87;1.90;;;;;;;;;;5098410;27;20396;-79
2023/10/29 13:07:58;;;;;;;7.90;1.85;;;;;;;;;;5118207;27;20413;-82
2023/10/29 13:10:24;;;;;;;8.75;1.85;;;;;;;;;;5118231;27;20407;-80
2023/10/29 13:12:51;;;;;;;8.93;2.15;;;;;;;;;;5119353;27;20421;-80
2023/10/29 13:15:18;;;;;;;9.48;1.80;;;14.50;99.90;;;;;;5121718;27;20394;-79
2023/10/29 13:17:46;;;;;;;5.85;1.70;;;;;;;;;;5114681;27;20811;-79
2023/10/29 13:20:11;;;;;;;7.35;1.70;;;14.50;99.90;;;;;;5091681;27;20728;-78
2023/10/29 13:22:42;;;;;;;8.80;2.13;;;;;;;;;;5117876;27;20398;-80
2023/10/29 13:25:08;;;;;;;9.00;1.95;;;14.30;99.90;;;;;;5129682;27;20420;-80
2023/10/29 13:27:34;;;;;;;10.63;1.83;;;14.40;99.90;;;;;;5123637;27;20442;-80
2023/10/29 13:30:02;;;;;;;8.77;1.90;;;;;;;;;;5114882;27;20410;-79
2023/10/29 13:32:29;;;;;;;10.02;2.13;;;;;;;;;;5104957;27;20394;-80
2023/10/29 13:34:56;;;;;;;10.45;2.13;;;14.40;99.90;;;;;;5110615;27;20426;-78
2023/10/29 13:37:22;;;;;;;10.98;2.10;;;;;;;;;;5092728;28;20416;-79
2023/10/29 13:39:48;;;;;;;8.95;2.17;;;14.20;99.90;;;;;;5099685;27;20414;-79
2023/10/29 13:42:16;;;;;;;9.15;2.10;;;;;;;;;;5100257;27;20391;-77
2023/10/29 13:44:42;;;;;;;8.77;1.77;;;14.60;99.90;;;;;;5116409;27;20395;-77
2023/10/29 13:47:09;;;;;;;6.73;1.80;;;;;;;;;;5098936;27;20413;-76
2023/10/29 13:49:34;;;;;;;12.00;2.58;;;14.70;99.90;;;;;;5082777;27;20405;-78
2023/10/29 13:52:00;;;;;;;10.43;2.40;;;;;;;;;;5094734;27;20401;-78